Vance, Alabama
Current Conditions -  °F | °C
As of 3:53 PM on Tuesday 25 Nov 2014 (Local Time) from KTCL Reporting Station
Clear Clear  
Wind Chill: 54°   Ceiling: Unl
Heat Index: 54°   Visibility: 10mi
Dew Point: 28°   Wind: 10mph
Humidity: 37%   Direction: 310°NW
Pressure: 30.08"   Gusts: NA
Location:  33.17°N, 87.23°W
Report Text: KTCL 252153Z 31009KT 10SM CLR 12/M02 A3008 RMK AO2 SLP185 T01221022
Loading
Personal Weather Stations






























Interactive Weather Map New forecast layout! Learn more

10-Day Weather Forecast

Advertisements
Track Severe Weather on mobile